createdAt,value
2022-09-04T00:00:00.195Z,16.40
2022-09-04T00:02:44.751Z,16.47
2022-09-04T00:05:22.769Z,16.35
2022-09-04T00:08:01.227Z,16.30
2022-09-04T00:10:30.796Z,16.35
2022-09-04T00:13:02.265Z,16.27
2022-09-04T00:15:33.214Z,16.35
2022-09-04T00:18:11.657Z,16.20
2022-09-04T00:20:50.170Z,16.20
2022-09-04T00:23:19.599Z,16.23
2022-09-04T00:25:57.752Z,16.25
2022-09-04T00:28:30.038Z,16.24
2022-09-04T00:31:03.180Z,16.29
2022-09-04T00:33:38.217Z,16.35
2022-09-04T00:36:05.325Z,16.35
2022-09-04T00:38:36.335Z,16.35
2022-09-04T00:41:02.665Z,16.35
2022-09-04T00:43:47.877Z,16.41
2022-09-04T00:46:21.071Z,16.32
2022-09-04T00:49:06.161Z,16.41
2022-09-04T00:51:44.853Z,16.39
2022-09-04T00:54:37.828Z,16.47
2022-09-04T00:57:16.161Z,16.54
2022-09-04T00:59:45.615Z,16.48
2022-09-04T01:02:23.935Z,16.53
2022-09-04T01:05:07.478Z,16.52
2022-09-04T01:07:38.286Z,16.53
2022-09-04T01:10:27.746Z,16.52
2022-09-04T01:13:06.788Z,16.51
2022-09-04T01:15:41.243Z,16.59
2022-09-04T01:18:28.111Z,16.53
2022-09-04T01:21:30.810Z,16.46
2022-09-04T01:24:07.889Z,16.36
2022-09-04T01:26:34.236Z,16.29
2022-09-04T01:29:15.535Z,16.27
2022-09-04T01:31:52.996Z,16.21
2022-09-04T01:34:22.204Z,16.18
2022-09-04T01:37:00.834Z,16.11
2022-09-04T01:39:29.425Z,16.04
2022-09-04T01:42:18.114Z,16.10
2022-09-04T01:44:44.509Z,16.21
2022-09-04T01:47:32.330Z,16.04
2022-09-04T01:50:20.544Z,16.08
2022-09-04T01:53:05.776Z,16.00
2022-09-04T01:55:36.881Z,15.96
2022-09-04T01:58:29.470Z,15.98
2022-09-04T02:01:00.512Z,16.02
2022-09-04T02:03:39.189Z,15.94
2022-09-04T02:06:16.705Z,15.98
2022-09-04T02:08:43.364Z,15.94
2022-09-04T02:11:26.563Z,15.96
2022-09-04T02:13:56.443Z,15.99
2022-09-04T02:16:26.628Z,15.90
2022-09-04T02:19:02.344Z,15.97
2022-09-04T02:21:44.538Z,16.01
2022-09-04T02:24:23.725Z,16.06
2022-09-04T02:26:58.877Z,16.09
2022-09-04T02:29:25.240Z,16.03
2022-09-04T02:32:12.843Z,16.02
2022-09-04T02:34:57.221Z,16.10
2022-09-04T02:37:35.688Z,16.08
2022-09-04T02:40:18.268Z,16.03
2022-09-04T02:42:52.294Z,16.01
2022-09-04T02:45:30.115Z,15.96
2022-09-04T02:48:13.738Z,15.92
2022-09-04T02:50:46.113Z,15.90
2022-09-04T02:53:30.974Z,15.90
2022-09-04T02:56:16.210Z,15.85
2022-09-04T02:58:54.734Z,15.92
2022-09-04T03:01:24.268Z,15.89
2022-09-04T03:03:59.900Z,15.86
2022-09-04T03:06:45.931Z,15.79
2022-09-04T03:09:15.409Z,15.83
2022-09-04T03:11:45.283Z,15.85
2022-09-04T03:14:18.803Z,15.85
2022-09-04T03:16:51.950Z,15.82
2022-09-04T03:19:21.029Z,15.90
2022-09-04T03:21:53.474Z,15.86
2022-09-04T03:24:38.576Z,15.77
2022-09-04T03:27:06.751Z,15.78
2022-09-04T03:29:51.579Z,15.77
2022-09-04T03:32:21.378Z,15.72
2022-09-04T03:34:47.801Z,15.68
2022-09-04T03:37:21.178Z,15.63
2022-09-04T03:39:47.510Z,15.66
2022-09-04T03:42:25.115Z,15.62
2022-09-04T03:45:08.882Z,15.47
2022-09-04T03:47:41.377Z,15.42
2022-09-04T03:50:18.319Z,15.56
2022-09-04T03:52:58.089Z,15.46
2022-09-04T03:55:30.362Z,15.40
2022-09-04T03:58:14.113Z,15.43
2022-09-04T04:00:46.374Z,15.33
2022-09-04T04:03:32.708Z,15.17
2022-09-04T04:06:06.313Z,15.26
2022-09-04T04:08:35.690Z,15.26
2022-09-04T04:11:08.253Z,15.25
2022-09-04T04:13:52.859Z,15.25
2022-09-04T04:16:24.634Z,15.21
2022-09-04T04:18:54.754Z,15.27
2022-09-04T04:21:56.333Z,15.34
2022-09-04T04:24:41.532Z,15.22
2022-09-04T04:27:10.936Z,15.18
2022-09-04T04:29:55.738Z,15.17
2022-09-04T04:32:24.227Z,15.13
2022-09-04T04:35:19.988Z,15.18
2022-09-04T04:37:51.698Z,15.14
2022-09-04T04:40:18.040Z,15.16
2022-09-04T04:43:05.437Z,15.12
2022-09-04T04:45:50.105Z,15.10
2022-09-04T04:48:24.174Z,15.12
2022-09-04T04:51:00.303Z,15.05
2022-09-04T04:53:46.935Z,14.93
2022-09-04T04:56:32.113Z,14.91
2022-09-04T04:59:20.589Z,14.88
2022-09-04T05:01:59.468Z,14.76
2022-09-04T05:04:29.958Z,14.78
2022-09-04T05:07:06.940Z,14.86
2022-09-04T05:09:54.909Z,14.84
2022-09-04T05:12:21.237Z,14.90
2022-09-04T05:14:54.516Z,14.77
2022-09-04T05:17:30.061Z,14.75
2022-09-04T05:20:15.279Z,14.78
2022-09-04T05:22:49.394Z,14.68
2022-09-04T05:25:15.744Z,14.72
2022-09-04T05:27:42.059Z,14.80
2022-09-04T05:30:31.055Z,14.78
2022-09-04T05:33:03.182Z,14.60
2022-09-04T05:35:40.450Z,14.88
2022-09-04T05:38:14.067Z,14.84
2022-09-04T05:40:46.658Z,14.86
2022-09-04T05:43:19.232Z,14.80
2022-09-04T05:45:52.831Z,14.88
2022-09-04T05:48:27.875Z,14.84
2022-09-04T05:50:54.235Z,14.80
2022-09-04T05:53:39.948Z,14.83
2022-09-04T05:56:18.082Z,14.93
2022-09-04T05:59:02.940Z,14.87
2022-09-04T06:01:39.178Z,14.87
2022-09-04T06:04:13.581Z,14.82
2022-09-04T06:06:58.389Z,14.85
2022-09-04T06:09:43.419Z,14.90
2022-09-04T06:12:28.626Z,14.92
2022-09-04T06:15:13.752Z,15.00
2022-09-04T06:17:40.071Z,15.01
2022-09-04T06:20:25.187Z,15.03
2022-09-04T06:23:10.360Z,15.09
2022-09-04T06:25:42.052Z,15.10
2022-09-04T06:28:08.371Z,15.15
2022-09-04T06:30:55.073Z,15.22
2022-09-04T06:33:41.691Z,15.16
2022-09-04T06:36:34.562Z,15.23
2022-09-04T06:39:07.019Z,15.24
2022-09-04T06:41:54.708Z,15.25
2022-09-04T06:44:35.237Z,15.34
2022-09-04T06:47:07.543Z,15.40
2022-09-04T06:49:46.111Z,15.40
2022-09-04T06:52:23.426Z,15.42
2022-09-04T06:54:53.940Z,15.44
2022-09-04T06:57:43.371Z,15.45
2022-09-04T07:00:11.646Z,15.54
2022-09-04T07:02:48.289Z,15.51
2022-09-04T07:05:19.870Z,15.51
2022-09-04T07:07:46.234Z,15.44
2022-09-04T07:10:16.255Z,15.50
2022-09-04T07:12:48.668Z,15.44
2022-09-04T07:15:28.983Z,15.53
2022-09-04T07:18:14.088Z,15.39
2022-09-04T07:20:54.812Z,15.57
2022-09-04T07:23:39.358Z,15.61
2022-09-04T07:26:05.706Z,15.59
2022-09-04T07:28:43.976Z,15.66
2022-09-04T07:31:10.436Z,15.71
2022-09-04T07:33:51.822Z,15.64
2022-09-04T07:36:31.970Z,15.76
2022-09-04T07:39:07.169Z,15.80
2022-09-04T07:41:42.226Z,15.83
2022-09-04T07:44:29.140Z,15.87
2022-09-04T07:47:12.239Z,15.96
2022-09-04T07:49:54.605Z,15.92
2022-09-04T07:52:21.412Z,15.96
2022-09-04T07:54:47.738Z,16.04
2022-09-04T07:57:21.205Z,16.09
2022-09-04T07:59:53.634Z,16.13
2022-09-04T08:02:20.008Z,16.11
2022-09-04T08:05:06.641Z,16.11
2022-09-04T08:07:33.007Z,16.21
2022-09-04T08:10:18.135Z,16.24
2022-09-04T08:12:58.798Z,16.28
2022-09-04T08:15:35.472Z,16.34
2022-09-04T08:18:07.337Z,16.45
2022-09-04T08:20:42.291Z,16.49
2022-09-04T08:23:24.445Z,16.61
2022-09-04T08:26:14.585Z,16.65
2022-09-04T08:28:59.706Z,16.71
2022-09-04T08:31:47.129Z,16.75
2022-09-04T08:34:39.790Z,16.81
2022-09-04T08:37:13.846Z,16.86
2022-09-04T08:40:04.137Z,16.93
2022-09-04T08:42:36.609Z,16.96
2022-09-04T08:45:09.053Z,16.99
2022-09-04T08:47:35.492Z,17.04
2022-09-04T08:50:23.723Z,17.11
2022-09-04T08:53:10.399Z,17.14
2022-09-04T08:55:39.815Z,17.21
2022-09-04T08:58:06.141Z,17.20
2022-09-04T09:00:38.585Z,17.27
2022-09-04T09:03:07.932Z,17.33
2022-09-04T09:05:55.162Z,17.33
2022-09-04T09:08:34.184Z,17.36
2022-09-04T09:11:03.786Z,17.41
2022-09-04T09:13:51.696Z,17.49
2022-09-04T09:16:22.581Z,17.54
2022-09-04T09:19:07.616Z,17.57
2022-09-04T09:21:53.869Z,17.66
2022-09-04T09:24:38.969Z,17.63
2022-09-04T09:27:11.737Z,17.67
2022-09-04T09:29:43.861Z,17.71
2022-09-04T09:32:19.332Z,17.74
2022-09-04T09:34:52.108Z,17.75
2022-09-04T09:37:21.273Z,17.82
2022-09-04T09:39:47.627Z,17.84
2022-09-04T09:42:15.314Z,17.89
2022-09-04T09:44:53.836Z,17.94
2022-09-04T09:47:39.007Z,18.04
2022-09-04T09:50:06.126Z,18.10
2022-09-04T09:52:57.536Z,18.13
2022-09-04T09:55:49.978Z,18.27
2022-09-04T09:58:19.308Z,18.40
2022-09-04T10:01:08.286Z,18.44
2022-09-04T10:03:54.594Z,18.53
2022-09-04T10:06:30.106Z,18.61
2022-09-04T10:09:09.595Z,18.63
2022-09-04T10:12:06.868Z,18.72
2022-09-04T10:14:36.125Z,18.78
2022-09-04T10:17:05.470Z,18.81
2022-09-04T10:19:56.245Z,18.81
2022-09-04T10:22:37.885Z,18.87
2022-09-04T10:25:04.231Z,18.94
2022-09-04T10:27:49.348Z,18.98
2022-09-04T10:30:20.993Z,19.00
2022-09-04T10:33:10.725Z,19.00
2022-09-04T10:35:41.530Z,19.01
2022-09-04T10:38:20.844Z,19.02
2022-09-04T10:40:59.453Z,19.02
2022-09-04T10:43:44.358Z,19.03
2022-09-04T10:46:29.353Z,18.73
2022-09-04T10:49:07.264Z,18.86
2022-09-04T10:51:52.303Z,18.94
2022-09-04T10:54:38.337Z,19.01
2022-09-04T10:57:14.718Z,18.99
2022-09-04T10:59:47.158Z,19.07
2022-09-04T11:02:33.128Z,19.06
2022-09-04T11:05:06.990Z,19.07
2022-09-04T11:07:56.717Z,19.10
2022-09-04T11:10:38.236Z,19.07
2022-09-04T11:13:04.556Z,19.03
2022-09-04T11:15:34.055Z,19.02
2022-09-04T11:18:12.701Z,19.08
2022-09-04T11:21:07.751Z,18.99
2022-09-04T11:23:34.156Z,18.93
2022-09-04T11:26:29.888Z,19.00
2022-09-04T11:28:57.086Z,18.96
2022-09-04T11:31:23.480Z,18.99
2022-09-04T11:34:01.777Z,18.99
2022-09-04T11:36:46.820Z,19.02
2022-09-04T11:39:32.825Z,19.00
2022-09-04T11:42:20.375Z,19.01
2022-09-04T11:45:05.713Z,19.09
2022-09-04T11:47:41.257Z,19.06
2022-09-04T11:50:25.967Z,19.11
2022-09-04T11:53:11.322Z,19.17
2022-09-04T11:55:37.685Z,19.25
2022-09-04T11:58:22.532Z,19.26
2022-09-04T12:01:09.966Z,19.27
2022-09-04T12:03:53.327Z,19.23
2022-09-04T12:06:22.825Z,19.34
2022-09-04T12:09:12.199Z,19.33
2022-09-04T12:11:57.210Z,19.36
2022-09-04T12:14:35.366Z,19.34
2022-09-04T12:17:15.537Z,19.35
2022-09-04T12:19:44.959Z,19.37
2022-09-04T12:22:20.491Z,19.30
2022-09-04T12:24:56.170Z,19.27
2022-09-04T12:27:28.879Z,19.36
2022-09-04T12:30:14.123Z,19.35
2022-09-04T12:32:59.295Z,19.35
2022-09-04T12:35:31.994Z,19.35
2022-09-04T12:38:01.525Z,19.33
2022-09-04T12:40:44.941Z,19.31
2022-09-04T12:43:17.483Z,19.39
2022-09-04T12:46:04.425Z,19.31
2022-09-04T12:48:49.047Z,19.31
2022-09-04T12:51:26.484Z,19.19
2022-09-04T12:54:02.293Z,19.22
2022-09-04T12:56:40.861Z,19.24
2022-09-04T12:59:23.482Z,19.17
2022-09-04T13:01:50.046Z,19.22
2022-09-04T13:04:35.241Z,19.22
2022-09-04T13:07:27.211Z,19.29
2022-09-04T13:10:02.442Z,19.24
2022-09-04T13:12:31.820Z,19.28
2022-09-04T13:14:58.162Z,19.32
2022-09-04T13:17:43.580Z,19.43
2022-09-04T13:20:12.988Z,19.37
2022-09-04T13:22:48.433Z,19.44
2022-09-04T13:25:35.223Z,19.42
2022-09-04T13:28:07.836Z,19.46
2022-09-04T13:30:36.104Z,19.39
2022-09-04T13:33:14.767Z,19.42
2022-09-04T13:36:00.126Z,19.44
2022-09-04T13:38:27.072Z,19.50
2022-09-04T13:40:54.882Z,19.56
2022-09-04T13:43:24.419Z,19.60
2022-09-04T13:45:53.769Z,19.63
2022-09-04T13:48:39.867Z,19.63
2022-09-04T13:51:18.252Z,19.64
2022-09-04T13:53:44.570Z,19.63
2022-09-04T13:56:15.545Z,19.63
2022-09-04T13:58:51.475Z,19.66
2022-09-04T14:01:25.028Z,19.64
2022-09-04T14:03:53.420Z,19.64
2022-09-04T14:06:21.153Z,19.65
2022-09-04T14:09:04.874Z,19.62
2022-09-04T14:11:36.065Z,19.63
2022-09-04T14:14:21.217Z,19.66
2022-09-04T14:16:50.222Z,19.67
2022-09-04T14:19:17.292Z,19.67
2022-09-04T14:22:05.423Z,19.65
2022-09-04T14:24:38.574Z,19.64
2022-09-04T14:27:12.378Z,19.60
2022-09-04T14:29:46.702Z,19.62
2022-09-04T14:32:13.124Z,19.56
2022-09-04T14:34:50.027Z,19.62
2022-09-04T14:37:36.072Z,19.63
2022-09-04T14:40:09.895Z,19.74
2022-09-04T14:42:52.055Z,19.76
2022-09-04T14:45:25.628Z,19.73
2022-09-04T14:47:56.661Z,19.73
2022-09-04T14:50:30.231Z,19.75
2022-09-04T14:53:04.773Z,19.67
2022-09-04T14:55:32.896Z,19.70
2022-09-04T14:58:19.596Z,19.64
2022-09-04T15:01:13.411Z,19.71
2022-09-04T15:03:39.876Z,19.67
2022-09-04T15:06:16.065Z,19.66
2022-09-04T15:08:44.358Z,19.58
2022-09-04T15:11:31.179Z,19.54
2022-09-04T15:14:04.834Z,19.54
2022-09-04T15:16:40.337Z,19.53
2022-09-04T15:19:18.753Z,19.53
2022-09-04T15:21:57.240Z,19.54
2022-09-04T15:24:48.636Z,19.50
2022-09-04T15:27:18.054Z,19.50
2022-09-04T15:29:53.500Z,19.46
2022-09-04T15:32:30.098Z,19.46
2022-09-04T15:35:16.476Z,19.47
2022-09-04T15:37:48.549Z,19.49
2022-09-04T15:40:27.194Z,19.49
2022-09-04T15:42:54.020Z,19.48
2022-09-04T15:45:26.398Z,19.49
2022-09-04T15:48:04.801Z,19.49
2022-09-04T15:50:34.328Z,19.49
2022-09-04T15:53:12.925Z,19.49
2022-09-04T15:55:41.260Z,19.52
2022-09-04T15:58:08.722Z,19.54
2022-09-04T16:00:37.054Z,19.52
2022-09-04T16:03:12.808Z,19.57
2022-09-04T16:05:45.140Z,19.52
2022-09-04T16:08:23.555Z,19.46
2022-09-04T16:10:54.848Z,19.43
2022-09-04T16:13:24.272Z,19.37
2022-09-04T16:15:53.196Z,19.44
2022-09-04T16:18:22.252Z,19.41
2022-09-04T16:20:51.397Z,19.34
2022-09-04T16:23:27.190Z,19.24
2022-09-04T16:25:56.595Z,19.13
2022-09-04T16:28:26.357Z,19.12
2022-09-04T16:30:57.809Z,18.99
2022-09-04T16:33:28.414Z,18.99
2022-09-04T16:35:59.594Z,18.98
2022-09-04T16:38:32.185Z,18.87
2022-09-04T16:41:01.492Z,18.90
2022-09-04T16:43:28.641Z,18.72
2022-09-04T16:46:07.756Z,18.46
2022-09-04T16:48:52.522Z,18.72
2022-09-04T16:51:25.076Z,18.72
2022-09-04T16:54:29.135Z,18.63
2022-09-04T16:57:12.307Z,18.57
2022-09-04T16:59:53.005Z,18.47
2022-09-04T17:02:30.753Z,18.48
2022-09-04T17:05:10.278Z,18.52
2022-09-04T17:07:40.080Z,18.51
2022-09-04T17:10:15.511Z,18.43
2022-09-04T17:12:52.576Z,18.46
2022-09-04T17:15:25.248Z,18.28
2022-09-04T17:17:53.868Z,18.29
2022-09-04T17:20:33.646Z,18.40
2022-09-04T17:29:03.639Z,18.49
2022-09-04T17:29:18.363Z,18.47
2022-09-04T17:29:34.473Z,18.50
2022-09-04T17:31:57.401Z,18.57
2022-09-04T17:40:34.602Z,18.60
2022-09-04T17:40:54.773Z,18.56
2022-09-04T17:40:57.405Z,18.54
2022-09-04T17:43:32.913Z,18.58
2022-09-04T17:46:08.649Z,18.55
2022-09-04T17:48:40.277Z,18.64
2022-09-04T17:51:09.672Z,18.61
2022-09-04T17:53:38.303Z,18.61
2022-09-04T17:56:09.966Z,18.60
2022-09-04T17:58:54.503Z,18.36
2022-09-04T18:01:25.097Z,18.33
2022-09-04T18:04:20.235Z,18.15
2022-09-04T18:07:53.174Z,18.03
2022-09-04T18:10:01.013Z,17.80
2022-09-04T18:12:39.404Z,17.78
2022-09-04T18:15:33.843Z,17.74
2022-09-04T18:18:09.947Z,17.52
2022-09-04T18:20:51.697Z,17.51
2022-09-04T18:23:21.469Z,17.58
2022-09-04T18:25:59.225Z,17.48
2022-09-04T18:28:29.436Z,17.39
2022-09-04T18:37:06.362Z,17.24
2022-09-04T18:37:17.607Z,17.21
2022-09-04T18:37:26.215Z,17.13
2022-09-04T18:39:59.316Z,17.08
2022-09-04T18:48:19.112Z,16.98
2022-09-04T18:50:38.514Z,16.86
2022-09-04T18:50:46.368Z,16.97
2022-09-04T18:51:31.393Z,16.93
2022-09-04T18:53:58.282Z,16.97
2022-09-04T18:56:24.746Z,17.00
2022-09-04T18:58:51.133Z,16.93
2022-09-04T19:01:27.233Z,16.94
2022-09-04T19:03:59.778Z,16.82
2022-09-04T19:06:39.632Z,16.84
2022-09-04T19:09:14.718Z,16.83
2022-09-04T19:11:45.268Z,16.73
2022-09-04T19:14:18.810Z,16.82
2022-09-04T19:16:55.010Z,17.09
2022-09-04T19:19:30.675Z,17.14
2022-09-04T19:22:18.405Z,17.25
2022-09-04T19:24:59.461Z,17.27
2022-09-04T19:27:40.980Z,17.28
2022-09-04T19:30:25.127Z,17.33
2022-09-04T19:33:02.838Z,17.24
2022-09-04T19:35:30.048Z,17.29
2022-09-04T19:42:46.011Z,17.36
2022-09-04T19:46:01.660Z,17.27
2022-09-04T19:46:13.656Z,17.15
2022-09-04T19:46:51.627Z,17.11
2022-09-04T19:51:38.818Z,16.97
2022-09-04T19:53:31.295Z,17.05
2022-09-04T19:55:45.625Z,16.97
2022-09-04T19:58:17.517Z,16.81
2022-09-04T20:00:52.609Z,16.75
2022-09-04T20:03:32.311Z,16.77
2022-09-04T20:06:20.768Z,16.65
2022-09-04T20:09:14.559Z,16.61
2022-09-04T20:12:01.280Z,16.55
2022-09-04T20:14:30.912Z,16.54
2022-09-04T20:17:15.842Z,16.46
2022-09-04T20:19:45.860Z,16.43
2022-09-04T20:22:15.289Z,16.36
2022-09-04T20:25:01.345Z,16.38
2022-09-04T20:27:36.420Z,16.35
2022-09-04T20:30:32.061Z,16.29
2022-09-04T20:33:05.625Z,16.30
2022-09-04T20:35:32.863Z,16.34
2022-09-04T20:38:30.295Z,16.23
2022-09-04T20:41:00.032Z,16.22
2022-09-04T20:43:38.384Z,16.08
2022-09-04T20:51:51.207Z,16.07
2022-09-04T20:52:52.241Z,15.90
2022-09-04T20:52:55.661Z,15.94
2022-09-04T20:54:58.343Z,15.97
2022-09-04T21:01:43.086Z,15.95
2022-09-04T21:03:22.695Z,15.90
2022-09-04T21:03:28.871Z,15.89
2022-09-04T21:06:11.196Z,15.84
2022-09-04T21:09:04.063Z,15.74
2022-09-04T21:11:40.605Z,15.73
2022-09-04T21:14:10.834Z,15.95
2022-09-04T21:16:40.230Z,15.99
2022-09-04T21:19:29.123Z,16.25
2022-09-04T21:22:01.937Z,16.22
2022-09-04T21:24:37.607Z,16.23
2022-09-04T21:27:36.238Z,16.19
2022-09-04T21:30:02.760Z,16.39
2022-09-04T21:32:38.252Z,16.40
2022-09-04T21:35:07.693Z,16.47
2022-09-04T21:37:34.031Z,16.44
2022-09-04T21:40:43.267Z,16.44
2022-09-04T21:43:17.650Z,16.47
2022-09-04T21:45:58.106Z,16.44
2022-09-04T21:48:39.561Z,16.28
2022-09-04T21:51:40.006Z,16.46
2022-09-04T21:54:10.280Z,16.46
2022-09-04T22:02:29.179Z,16.31
2022-09-04T22:02:40.284Z,16.28
2022-09-04T22:02:51.427Z,16.12
2022-09-04T22:05:21.686Z,16.00
2022-09-04T22:13:28.412Z,15.94
2022-09-04T22:13:28.827Z,15.80
2022-09-04T22:13:51.191Z,15.68
2022-09-04T22:16:37.263Z,15.61
2022-09-04T22:19:17.290Z,15.83
2022-09-04T22:21:46.665Z,15.50
2022-09-04T22:24:25.179Z,15.53
2022-09-04T22:27:12.554Z,15.49
2022-09-04T22:29:48.345Z,15.47
2022-09-04T22:32:33.629Z,15.48
2022-09-04T22:34:59.991Z,15.37
2022-09-04T22:37:29.403Z,15.44
2022-09-04T22:40:04.984Z,15.67
2022-09-04T22:42:43.618Z,15.69
2022-09-04T22:45:16.042Z,15.55
2022-09-04T22:48:05.425Z,15.36
2022-09-04T22:50:49.590Z,15.43
2022-09-04T22:53:25.181Z,15.59
2022-09-04T22:56:23.255Z,15.39
2022-09-04T22:59:26.222Z,15.50
2022-09-04T23:02:13.551Z,15.43
2022-09-04T23:04:52.641Z,15.34
2022-09-04T23:13:41.907Z,15.33
2022-09-04T23:13:44.395Z,15.18
2022-09-04T23:13:59.329Z,15.46
2022-09-04T23:16:05.870Z,15.50
2022-09-04T23:21:07.172Z,15.61
2022-09-04T23:26:35.966Z,15.71
2022-09-04T23:26:41.906Z,15.88
2022-09-04T23:27:28.765Z,15.83
2022-09-04T23:30:02.213Z,15.75
2022-09-04T23:32:31.601Z,15.91
2022-09-04T23:35:15.782Z,16.00
2022-09-04T23:38:01.130Z,16.00
2022-09-04T23:40:27.566Z,15.87
2022-09-04T23:43:14.686Z,15.91
2022-09-04T23:46:23.528Z,15.98
2022-09-04T23:48:52.878Z,16.03
2022-09-04T23:51:27.936Z,16.07
2022-09-04T23:53:58.872Z,15.97
2022-09-04T23:56:46.179Z,15.95
2022-09-04T23:59:37.624Z,15.81
